Time;durP1;ratioP1;P1;durP2;ratioP2;P2;SDS_P1;SDS_P2;PMS_P1;PMS_P2;Temp;Humidity;BMP_temperature;BMP_pressure;BME280_temperature;BME280_humidity;BME280_pressure;Samples;Min_cycle;Max_cycle;Signal;HPM_P1;HPM_P2
2022/04/05 00:00:28;;;;;;;7.00;6.28;;;;;;;3.32;62.87;98670.50;3446353;80;21371;-79
2022/04/05 00:05:20;;;;;;;8.80;7.95;;;;;;;3.30;63.45;98658.07;3429273;82;21562;-79
2022/04/05 00:10:12;;;;;;;8.95;7.45;;;;;;;3.26;64.15;98652.45;3403131;81;21022;-79
2022/04/05 00:15:05;;;;;;;7.95;6.42;;;;;;;3.15;64.33;98642.44;3348000;82;20982;-79
2022/04/05 00:19:56;;;;;;;10.13;7.95;;;;;;;3.09;64.93;98633.39;3433246;82;21011;-80
2022/04/05 00:24:47;;;;;;;8.13;6.93;;;;;;;3.07;65.36;98626.09;3443378;82;21014;-80
2022/04/05 00:29:38;;;;;;;8.68;7.15;;;;;;;3.08;65.92;98617.52;3442001;82;21291;-80
2022/04/05 00:34:29;;;;;;;10.48;9.40;;;;;;;3.00;66.42;98606.73;3428181;82;21036;-80
2022/04/05 00:39:22;;;;;;;12.63;9.43;;;;;;;2.97;66.68;98610.56;3450958;81;20958;-80
2022/04/05 00:44:13;;;;;;;12.07;8.10;;;;;;;2.92;67.05;98609.63;3464833;80;21279;-79
2022/04/05 00:49:04;;;;;;;9.88;7.92;;;;;;;2.91;67.17;98597.63;3453984;80;21546;-79
2022/04/05 00:54:05;;;;;;;9.28;8.43;;;;;;;2.95;67.42;98589.15;3407933;81;21468;-80
2022/04/05 00:59:00;;;;;;;7.87;7.08;;;;;;;2.96;67.58;98585.72;3437321;81;21048;-80
2022/04/05 01:03:53;;;;;;;10.05;9.13;;;;;;;2.92;69.46;98578.83;3465710;81;21401;-79
2022/04/05 01:08:49;;;;;;;9.83;8.95;;;;;;;2.82;68.71;98576.97;3409838;82;22122;-80
2022/04/05 01:13:41;;;;;;;9.88;8.88;;;;;;;2.80;68.79;98560.70;3440090;82;20947;-81
2022/04/05 01:18:34;;;;;;;8.43;7.72;;;;;;;2.79;68.86;98553.83;3415711;82;21911;-80
2022/04/05 01:23:25;;;;;;;10.43;9.58;;;;;;;2.79;69.24;98560.24;3447743;82;21438;-80
2022/04/05 01:28:17;;;;;;;11.00;9.98;;;;;;;2.74;69.26;98560.63;3449672;82;20988;-80
2022/04/05 01:33:08;;;;;;;10.68;9.58;;;;;;;2.75;69.73;98550.78;3420014;82;21007;-79
2022/04/05 01:38:02;;;;;;;10.75;9.75;;;;;;;2.78;70.09;98517.47;3408358;82;21016;-80
2022/04/05 01:42:53;;;;;;;10.00;9.05;;;;;;;2.79;69.98;98537.14;3409157;82;21575;-80
2022/04/05 01:47:44;;;;;;;9.08;8.25;;;;;;;2.76;70.31;98534.12;3410793;82;21500;-80
2022/04/05 01:52:36;;;;;;;9.30;8.43;;;;;;;2.70;70.66;98535.34;3359354;82;21753;-80
2022/04/05 01:57:27;;;;;;;7.65;7.05;;;;;;;2.71;70.80;98523.37;3386068;82;21606;-80
2022/04/05 02:02:18;;;;;;;7.80;7.12;;;;;;;2.73;70.81;98508.84;3439066;82;20952;-80
2022/04/05 02:07:17;;;;;;;8.43;7.65;;;;;;;2.73;70.89;98498.58;3336203;84;20988;-80
2022/04/05 02:12:10;;;;;;;7.97;7.35;;;;;;;2.72;71.29;98502.86;3326334;84;20960;-80
2022/04/05 02:17:11;;;;;;;7.17;6.58;;;;;;;2.71;71.47;98495.14;3444508;82;21018;-79
2022/04/05 02:22:04;;;;;;;7.47;6.78;;;;;;;2.75;71.87;98496.89;3407462;81;20948;-80
2022/04/05 02:26:56;;;;;;;9.95;8.95;;;;;;;2.77;71.85;98486.22;3427188;80;20959;-80
2022/04/05 02:31:47;;;;;;;9.05;8.25;;;;;;;2.74;71.83;98485.78;3435639;82;21157;-80
2022/04/05 02:36:39;;;;;;;7.42;6.72;;;;;;;2.75;73.29;98478.50;3490000;80;20974;-80
2022/04/05 02:41:32;;;;;;;9.23;8.53;;;;;;;2.81;72.63;98469.61;3436262;81;21472;-80
2022/04/05 02:46:23;;;;;;;8.88;8.08;;;;;;;2.83;72.40;98473.48;3470149;81;21486;-79
2022/04/05 02:51:16;;;;;;;8.50;7.80;;;;;;;2.79;72.36;98462.72;3474263;81;21409;-79
2022/04/05 02:56:09;;;;;;;8.20;7.50;;;;;;;2.79;72.54;98464.00;3449309;82;21214;-79
2022/04/05 03:01:02;;;;;;;8.05;7.35;;;;;;;2.78;72.80;98470.00;3422320;81;21026;-79
2022/04/05 03:05:54;;;;;;;7.97;7.12;;;;;;;2.78;73.32;98464.86;3409489;82;20967;-80
2022/04/05 03:10:46;;;;;;;9.03;8.23;;;;;;;2.78;73.14;98467.43;3365855;82;20995;-79
2022/04/05 03:15:38;;;;;;;8.63;7.83;;;;;;;2.76;73.56;98456.30;3409920;83;20959;-79
2022/04/05 03:20:31;;;;;;;8.75;7.95;;;;;;;2.80;73.75;98463.17;3384899;83;22513;-79
2022/04/05 03:25:23;;;;;;;6.83;6.22;;;;;;;2.81;73.65;98453.36;3381974;82;21500;-79
2022/04/05 03:30:19;;;;;;;9.15;8.25;;;;;;;2.84;73.93;98457.22;3385344;84;20963;-79
2022/04/05 03:35:11;;;;;;;8.55;7.85;;;;;;;2.84;73.82;98441.42;3346705;83;21473;-79
2022/04/05 03:40:05;;;;;;;8.58;7.45;;;;;;;2.91;73.94;98444.90;3357166;83;21695;-79
2022/04/05 03:44:58;;;;;;;10.03;9.13;;;;;;;2.98;74.17;98441.55;3355098;83;21128;-79
2022/04/05 03:49:50;;;;;;;9.90;8.88;;;;;;;3.01;74.03;98448.45;3395488;83;21011;-79
2022/04/05 03:54:42;;;;;;;10.23;9.00;;;;;;;3.01;74.38;98450.58;3408443;83;20968;-79
2022/04/05 03:59:35;;;;;;;8.40;7.70;;;;;;;3.09;74.50;98448.52;3391345;83;20971;-79
2022/04/05 04:04:27;;;;;;;10.63;9.63;;;;;;;3.16;74.44;98445.17;3388695;82;21014;-79
2022/04/05 04:09:19;;;;;;;9.73;8.93;;;;;;;3.20;74.53;98442.66;3365570;83;21189;-79
2022/04/05 04:14:12;;;;;;;9.95;9.05;;;;;;;3.23;74.62;98430.27;3396067;83;20963;-79
2022/04/05 04:19:04;;;;;;;10.58;9.58;;;;;;;3.24;74.79;98432.00;3391012;82;21556;-79
2022/04/05 04:23:56;;;;;;;8.95;8.15;;;;;;;3.30;74.60;98426.05;3410282;83;21026;-79
2022/04/05 04:28:53;;;;;;;10.45;9.50;;;;;;;3.36;74.79;98432.52;3369690;83;22084;-79
2022/04/05 04:33:44;;;;;;;9.35;8.48;;;;;;;3.39;74.61;98432.12;3405135;83;21090;-79
2022/04/05 04:38:36;;;;;;;11.38;10.38;;;;;;;3.40;74.83;98428.72;3395557;83;20956;-79
2022/04/05 04:43:27;;;;;;;10.53;9.53;;;;;;;3.39;74.72;98442.39;3396610;82;20924;-79
2022/04/05 04:48:19;;;;;;;8.15;7.35;;;;;;;3.45;74.53;98444.16;3375272;83;20964;-79
2022/04/05 04:53:11;;;;;;;10.70;9.65;;;;;;;3.59;75.02;98449.42;3409664;83;20940;-79
2022/04/05 04:58:02;;;;;;;10.53;9.45;;;;;;;3.63;74.60;98445.63;3418453;82;21041;-79
2022/04/05 05:02:53;;;;;;;10.75;9.73;;;;;;;3.68;74.48;98443.07;3396439;82;21001;-79
2022/04/05 05:07:45;;;;;;;10.23;9.33;;;;;;;3.72;74.57;98451.66;3419501;82;20936;-79
2022/04/05 05:12:36;;;;;;;9.85;9.05;;;;;;;3.77;74.46;98448.31;3413264;83;20983;-78
2022/04/05 05:17:27;;;;;;;9.73;8.85;;;;;;;3.85;74.60;98439.36;3409877;82;20983;-80
2022/04/05 05:22:18;;;;;;;11.43;10.32;;;;;;;3.97;74.42;98446.28;3431628;83;22407;-80
2022/04/05 05:27:09;;;;;;;11.07;10.07;;;;;;;3.94;74.36;98468.14;3433884;83;21420;-82
2022/04/05 05:32:00;;;;;;;10.53;9.58;;;;;;;3.94;74.80;98456.57;3385958;83;20992;-82
2022/04/05 05:36:51;;;;;;;11.00;10.00;;;;;;;4.20;74.42;98472.16;3414766;83;21042;-82
2022/04/05 05:41:42;;;;;;;11.68;10.55;;;;;;;4.31;74.26;98459.36;3379305;83;20951;-82
2022/04/05 05:46:33;;;;;;;11.20;10.10;;;;;;;4.66;74.01;98464.70;3400292;83;20991;-82
2022/04/05 05:51:25;;;;;;;10.03;9.03;;;;;;;4.80;73.78;98472.50;3399612;83;21107;-82
2022/04/05 05:56:16;;;;;;;10.00;9.08;;;;;;;4.76;74.00;98475.92;3407862;83;21498;-83
2022/04/05 06:01:07;;;;;;;10.53;9.35;;;;;;;4.69;74.01;98486.61;3371167;82;21007;-81
2022/04/05 06:05:58;;;;;;;9.63;8.78;;;;;;;4.54;74.22;98493.84;3423414;83;20940;-82
2022/04/05 06:10:49;;;;;;;9.95;9.05;;;;;;;4.42;74.51;98501.48;3445171;81;21279;-84
2022/04/05 06:15:41;;;;;;;9.33;8.53;;;;;;;4.31;74.50;98498.84;3486160;80;21425;-84
2022/04/05 06:20:32;;;;;;;10.13;9.13;;;;;;;4.24;74.62;98491.05;3463548;81;20975;-84
2022/04/05 06:25:31;;;;;;;10.55;9.68;;;;;;;4.16;74.85;98493.58;3401827;81;21056;-83
2022/04/05 06:30:23;;;;;;;10.68;9.83;;;;;;;4.12;75.07;98495.27;3485244;80;21250;-83
2022/04/05 06:35:16;;;;;;;10.38;9.48;;;;;;;4.16;75.33;98485.86;3381494;81;21001;-82
2022/04/05 06:40:08;;;;;;;12.50;11.12;;;;;;;4.26;75.37;98489.38;3469011;80;20955;-83
2022/04/05 06:44:59;;;;;;;10.10;9.10;;;;;;;4.33;75.33;98507.86;3388037;82;20998;-83
2022/04/05 06:49:50;;;;;;;9.45;8.25;;;;;;;4.31;75.27;98513.39;3377729;83;20979;-85
2022/04/05 06:54:42;;;;;;;7.45;6.65;;;;;;;4.27;75.04;98517.66;3421732;83;21120;-84
2022/04/05 06:59:34;;;;;;;6.28;5.78;;;;;;;4.19;74.86;98507.32;3452162;81;21036;-84
2022/04/05 07:04:25;;;;;;;7.50;6.80;;;;;;;4.30;74.83;98509.11;3412196;81;21032;-84
2022/04/05 07:09:16;;;;;;;7.33;6.67;;;;;;;4.36;74.86;98516.86;3360591;84;20946;-83
2022/04/05 07:14:07;;;;;;;8.43;7.62;;;;;;;5.01;74.33;98516.80;3403624;82;21007;-82
2022/04/05 07:18:58;;;;;;;6.72;6.12;;;;;;;5.99;73.11;98499.41;3463579;82;21046;-82
2022/04/05 07:23:50;;;;;;;6.62;6.12;;;;;;;5.99;72.56;98507.16;3333963;84;21432;-82
2022/04/05 07:28:41;;;;;;;5.20;4.80;;;;;;;7.85;69.75;98502.98;3304985;84;20953;-82
2022/04/05 07:33:32;;;;;;;4.35;3.95;;;;;;;11.57;63.17;98486.69;3342220;82;20956;-83
2022/04/05 07:38:24;;;;;;;5.17;4.07;;;;;;;11.94;61.23;98480.66;3370611;84;21020;-82
2022/04/05 07:43:20;;;;;;;3.37;3.08;;;;;;;10.73;60.10;98500.59;3395312;82;21597;-82
2022/04/05 07:48:12;;;;;;;4.00;3.15;;;;;;;8.89;61.91;98524.93;3329492;84;22111;-82
2022/04/05 07:53:03;;;;;;;4.25;3.85;;;;;;;7.63;63.84;98517.37;3396547;83;21461;-81
2022/04/05 07:57:55;;;;;;;5.28;4.72;;;;;;;6.89;65.40;98526.38;3351780;83;20991;-82
2022/04/05 08:02:46;;;;;;;6.15;4.78;;;;;;;6.41;66.42;98539.38;3368495;83;21508;-81
2022/04/05 08:07:37;;;;;;;4.17;3.77;;;;;;;6.19;67.24;98563.91;3328922;83;21055;-83
2022/04/05 08:12:44;;;;;;;4.20;3.83;;;;;;;6.04;66.92;98578.08;3359089;83;21419;-77
2022/04/05 08:17:35;;;;;;;4.45;4.05;;;;;;;6.07;67.06;98578.94;3350798;84;21010;-77
2022/04/05 08:22:26;;;;;;;4.40;3.95;;;;;;;8.46;63.83;98574.59;3356962;84;21030;-80
2022/04/05 08:27:20;;;;;;;4.97;4.47;;;;;;;10.15;60.58;98564.75;3341463;83;20943;-77
2022/04/05 08:32:11;;;;;;;4.03;3.17;;;;;;;9.65;61.71;98567.66;3329332;83;21007;-78
2022/04/05 08:37:03;;;;;;;3.33;2.83;;;;;;;12.71;57.23;98560.80;3378869;83;21246;-79
2022/04/05 08:41:56;;;;;;;4.35;2.85;;;;;;;12.91;53.29;98566.36;3339859;83;21520;-83
2022/04/05 08:46:51;;;;;;;2.65;2.45;;;;;;;11.47;56.12;98576.28;3329130;85;20995;-84
2022/04/05 08:51:42;;;;;;;4.08;2.10;;;;;;;11.00;55.08;98586.29;3362636;85;21047;-85
2022/04/05 08:56:33;;;;;;;4.00;2.52;;;;;;;10.65;55.28;98582.57;3327030;85;21030;-84
2022/04/05 09:01:29;;;;;;;5.33;2.33;;;;;;;9.85;54.94;98595.47;3324205;84;20998;-85
2022/04/05 09:06:31;;;;;;;4.17;2.42;;;;;;;10.58;53.06;98603.05;3373890;82;21018;-81
